sensor_id;sensor_type;location;lat;lon;timestamp;pressure;altitude;pressure_sealevel;temperature;humidity
78755;BME280;68073;54.176;-4.554;2023-04-07T00:01:53;101708.83;;;9.21;40.95
78755;BME280;68073;54.176;-4.554;2023-04-07T00:04:19;101709.93;;;9.11;41.14
78755;BME280;68073;54.176;-4.554;2023-04-07T00:06:44;101709.66;;;9.07;41.20
78755;BME280;68073;54.176;-4.554;2023-04-07T00:09:09;101706.21;;;9.40;40.67
78755;BME280;68073;54.176;-4.554;2023-04-07T00:11:34;101708.58;;;8.97;41.17
78755;BME280;68073;54.176;-4.554;2023-04-07T00:13:59;101706.52;;;9.03;41.22
78755;BME280;68073;54.176;-4.554;2023-04-07T00:16:24;101702.91;;;9.14;41.08
78755;BME280;68073;54.176;-4.554;2023-04-07T00:18:50;101701.22;;;9.57;41.16
78755;BME280;68073;54.176;-4.554;2023-04-07T00:21:15;101702.29;;;9.23;40.97
78755;BME280;68073;54.176;-4.554;2023-04-07T00:23:40;101700.68;;;9.17;41.08
78755;BME280;68073;54.176;-4.554;2023-04-07T00:26:05;101703.96;;;9.27;41.57
78755;BME280;68073;54.176;-4.554;2023-04-07T00:28:31;101702.99;;;9.20;41.15
78755;BME280;68073;54.176;-4.554;2023-04-07T00:30:56;101699.77;;;8.49;41.92
78755;BME280;68073;54.176;-4.554;2023-04-07T00:33:21;101698.55;;;9.36;41.43
78755;BME280;68073;54.176;-4.554;2023-04-07T00:35:47;101696.99;;;8.65;41.66
78755;BME280;68073;54.176;-4.554;2023-04-07T00:38:11;101697.64;;;8.83;41.69
78755;BME280;68073;54.176;-4.554;2023-04-07T00:40:36;101695.54;;;8.80;41.33
78755;BME280;68073;54.176;-4.554;2023-04-07T00:43:02;101696.08;;;8.66;41.49
78755;BME280;68073;54.176;-4.554;2023-04-07T00:45:27;101693.63;;;8.70;41.48
78755;BME280;68073;54.176;-4.554;2023-04-07T00:47:52;101690.34;;;8.65;41.31
78755;BME280;68073;54.176;-4.554;2023-04-07T00:50:18;101688.46;;;8.87;40.99
78755;BME280;68073;54.176;-4.554;2023-04-07T00:52:43;101685.99;;;8.53;41.29
78755;BME280;68073;54.176;-4.554;2023-04-07T00:55:08;101693.30;;;8.18;41.29
78755;BME280;68073;54.176;-4.554;2023-04-07T00:57:33;101696.86;;;8.84;41.06
78755;BME280;68073;54.176;-4.554;2023-04-07T00:59:58;101700.89;;;8.67;41.58
78755;BME280;68073;54.176;-4.554;2023-04-07T01:02:28;101705.10;;;8.69;41.51
78755;BME280;68073;54.176;-4.554;2023-04-07T01:04:53;101705.70;;;8.24;41.56
78755;BME280;68073;54.176;-4.554;2023-04-07T01:07:17;101704.22;;;9.01;41.17
78755;BME280;68073;54.176;-4.554;2023-04-07T01:09:44;101710.44;;;8.77;41.61
78755;BME280;68073;54.176;-4.554;2023-04-07T01:12:09;101706.16;;;8.84;41.49
78755;BME280;68073;54.176;-4.554;2023-04-07T01:14:33;101709.39;;;8.61;41.50
78755;BME280;68073;54.176;-4.554;2023-04-07T01:16:55;101711.03;;;8.23;41.20
78755;BME280;68073;54.176;-4.554;2023-04-07T01:19:31;101711.63;;;7.96;41.45
78755;BME280;68073;54.176;-4.554;2023-04-07T01:21:46;101710.29;;;8.43;40.48
78755;BME280;68073;54.176;-4.554;2023-04-07T01:24:33;101712.24;;;8.20;40.99
78755;BME280;68073;54.176;-4.554;2023-04-07T01:26:36;101712.73;;;7.79;41.32
78755;BME280;68073;54.176;-4.554;2023-04-07T01:31:26;101713.04;;;8.10;41.06
78755;BME280;68073;54.176;-4.554;2023-04-07T01:33:52;101713.87;;;8.40;41.00
78755;BME280;68073;54.176;-4.554;2023-04-07T01:36:17;101712.04;;;8.35;41.65
78755;BME280;68073;54.176;-4.554;2023-04-07T01:38:43;101711.58;;;8.29;41.59
78755;BME280;68073;54.176;-4.554;2023-04-07T01:41:08;101710.98;;;8.34;41.59
78755;BME280;68073;54.176;-4.554;2023-04-07T01:43:32;101712.69;;;8.13;41.80
78755;BME280;68073;54.176;-4.554;2023-04-07T01:45:58;101708.19;;;8.13;41.85
78755;BME280;68073;54.176;-4.554;2023-04-07T01:48:23;101703.71;;;8.10;41.59
78755;BME280;68073;54.176;-4.554;2023-04-07T01:50:48;101700.58;;;7.96;42.07
78755;BME280;68073;54.176;-4.554;2023-04-07T01:53:14;101701.56;;;7.87;41.69
78755;BME280;68073;54.176;-4.554;2023-04-07T01:55:38;101698.94;;;7.71;41.86
78755;BME280;68073;54.176;-4.554;2023-04-07T01:58:04;101696.56;;;7.88;41.31
78755;BME280;68073;54.176;-4.554;2023-04-07T02:00:29;101699.63;;;8.12;41.35
78755;BME280;68073;54.176;-4.554;2023-04-07T02:03:00;101704.22;;;7.74;42.09
78755;BME280;68073;54.176;-4.554;2023-04-07T02:05:21;101705.12;;;7.66;42.00
78755;BME280;68073;54.176;-4.554;2023-04-07T02:07:48;101708.65;;;7.68;42.52
78755;BME280;68073;54.176;-4.554;2023-04-07T02:10:11;101705.63;;;7.66;41.93
78755;BME280;68073;54.176;-4.554;2023-04-07T02:12:37;101707.93;;;7.75;42.32
78755;BME280;68073;54.176;-4.554;2023-04-07T02:15:00;101705.62;;;7.69;41.33
78755;BME280;68073;54.176;-4.554;2023-04-07T02:17:26;101703.55;;;7.53;40.71
78755;BME280;68073;54.176;-4.554;2023-04-07T02:19:51;101704.44;;;7.56;40.64
78755;BME280;68073;54.176;-4.554;2023-04-07T02:22:16;101706.03;;;7.34;40.90
78755;BME280;68073;54.176;-4.554;2023-04-07T02:24:41;101709.34;;;7.63;40.42
78755;BME280;68073;54.176;-4.554;2023-04-07T02:27:06;101712.08;;;7.73;40.37
78755;BME280;68073;54.176;-4.554;2023-04-07T02:29:32;101712.16;;;7.30;40.86
78755;BME280;68073;54.176;-4.554;2023-04-07T02:31:57;101712.21;;;7.24;41.19
78755;BME280;68073;54.176;-4.554;2023-04-07T02:34:22;101710.02;;;7.80;40.58
78755;BME280;68073;54.176;-4.554;2023-04-07T02:36:48;101707.07;;;7.59;40.92
78755;BME280;68073;54.176;-4.554;2023-04-07T02:39:13;101706.11;;;7.47;41.21
78755;BME280;68073;54.176;-4.554;2023-04-07T02:41:38;101708.00;;;7.92;40.63
78755;BME280;68073;54.176;-4.554;2023-04-07T02:44:04;101714.57;;;7.62;41.00
78755;BME280;68073;54.176;-4.554;2023-04-07T02:46:29;101716.75;;;7.38;41.59
78755;BME280;68073;54.176;-4.554;2023-04-07T02:48:54;101715.27;;;7.29;41.93
78755;BME280;68073;54.176;-4.554;2023-04-07T02:51:19;101711.03;;;7.72;41.75
78755;BME280;68073;54.176;-4.554;2023-04-07T02:53:44;101709.53;;;7.66;41.22
78755;BME280;68073;54.176;-4.554;2023-04-07T02:56:10;101706.65;;;7.32;41.29
78755;BME280;68073;54.176;-4.554;2023-04-07T02:58:35;101702.11;;;7.27;40.94
78755;BME280;68073;54.176;-4.554;2023-04-07T03:01:00;101707.01;;;6.65;41.88
78755;BME280;68073;54.176;-4.554;2023-04-07T03:03:25;101708.48;;;6.68;41.83
78755;BME280;68073;54.176;-4.554;2023-04-07T03:05:51;101706.97;;;7.38;41.07
78755;BME280;68073;54.176;-4.554;2023-04-07T03:08:16;101708.30;;;6.64;41.85
78755;BME280;68073;54.176;-4.554;2023-04-07T03:10:41;101707.04;;;6.92;41.38
78755;BME280;68073;54.176;-4.554;2023-04-07T03:13:07;101711.36;;;6.82;41.64
78755;BME280;68073;54.176;-4.554;2023-04-07T03:15:32;101707.37;;;7.56;41.37
78755;BME280;68073;54.176;-4.554;2023-04-07T03:17:57;101704.23;;;7.04;41.49
78755;BME280;68073;54.176;-4.554;2023-04-07T03:20:23;101698.75;;;6.87;41.63
78755;BME280;68073;54.176;-4.554;2023-04-07T03:22:48;101702.71;;;6.91;41.38
78755;BME280;68073;54.176;-4.554;2023-04-07T03:25:14;101709.24;;;6.54;41.35
78755;BME280;68073;54.176;-4.554;2023-04-07T03:27:39;101710.76;;;6.84;40.79
78755;BME280;68073;54.176;-4.554;2023-04-07T03:30:05;101710.89;;;6.51;41.10
78755;BME280;68073;54.176;-4.554;2023-04-07T03:32:29;101711.96;;;6.64;40.81
78755;BME280;68073;54.176;-4.554;2023-04-07T03:34:55;101714.21;;;6.91;41.04
78755;BME280;68073;54.176;-4.554;2023-04-07T03:37:20;101713.17;;;6.75;41.51
78755;BME280;68073;54.176;-4.554;2023-04-07T03:39:45;101715.80;;;6.24;41.82
78755;BME280;68073;54.176;-4.554;2023-04-07T03:42:11;101717.55;;;7.03;40.96
78755;BME280;68073;54.176;-4.554;2023-04-07T03:44:36;101717.61;;;6.96;40.71
78755;BME280;68073;54.176;-4.554;2023-04-07T03:47:01;101717.98;;;6.47;41.03
78755;BME280;68073;54.176;-4.554;2023-04-07T03:49:27;101713.50;;;6.53;40.93
78755;BME280;68073;54.176;-4.554;2023-04-07T03:51:52;101714.12;;;6.57;40.90
78755;BME280;68073;54.176;-4.554;2023-04-07T03:54:17;101719.04;;;6.38;40.88
78755;BME280;68073;54.176;-4.554;2023-04-07T03:56:43;101724.08;;;6.57;40.80
78755;BME280;68073;54.176;-4.554;2023-04-07T03:59:08;101725.48;;;6.30;41.36
78755;BME280;68073;54.176;-4.554;2023-04-07T04:01:33;101722.44;;;6.15;41.21
78755;BME280;68073;54.176;-4.554;2023-04-07T04:03:58;101715.60;;;6.50;41.04
78755;BME280;68073;54.176;-4.554;2023-04-07T04:06:24;101713.15;;;6.32;41.02
78755;BME280;68073;54.176;-4.554;2023-04-07T04:08:49;101716.31;;;6.63;40.74
78755;BME280;68073;54.176;-4.554;2023-04-07T04:11:14;101718.68;;;6.67;41.11
78755;BME280;68073;54.176;-4.554;2023-04-07T04:13:40;101718.95;;;6.87;40.88
78755;BME280;68073;54.176;-4.554;2023-04-07T04:16:06;101716.69;;;6.57;40.83
78755;BME280;68073;54.176;-4.554;2023-04-07T04:18:30;101720.99;;;6.94;41.00
78755;BME280;68073;54.176;-4.554;2023-04-07T04:20:56;101725.46;;;6.61;40.90
78755;BME280;68073;54.176;-4.554;2023-04-07T04:23:21;101729.05;;;6.13;40.86
78755;BME280;68073;54.176;-4.554;2023-04-07T04:25:47;101727.05;;;6.52;40.89
78755;BME280;68073;54.176;-4.554;2023-04-07T04:28:12;101725.06;;;6.35;40.86
78755;BME280;68073;54.176;-4.554;2023-04-07T04:30:37;101727.98;;;6.67;40.89
78755;BME280;68073;54.176;-4.554;2023-04-07T04:33:02;101731.24;;;6.52;41.31
78755;BME280;68073;54.176;-4.554;2023-04-07T04:35:28;101735.46;;;6.60;41.28
78755;BME280;68073;54.176;-4.554;2023-04-07T04:37:54;101739.46;;;6.42;41.42
78755;BME280;68073;54.176;-4.554;2023-04-07T04:40:18;101739.40;;;6.27;41.42
78755;BME280;68073;54.176;-4.554;2023-04-07T04:42:43;101738.57;;;6.01;41.59
78755;BME280;68073;54.176;-4.554;2023-04-07T04:45:09;101738.61;;;6.12;41.24
78755;BME280;68073;54.176;-4.554;2023-04-07T04:47:34;101744.55;;;6.09;41.29
78755;BME280;68073;54.176;-4.554;2023-04-07T04:49:59;101751.53;;;6.27;40.96
78755;BME280;68073;54.176;-4.554;2023-04-07T04:52:25;101755.65;;;6.81;40.72
78755;BME280;68073;54.176;-4.554;2023-04-07T04:54:50;101758.04;;;5.91;41.83
78755;BME280;68073;54.176;-4.554;2023-04-07T04:57:15;101752.12;;;6.45;41.63
78755;BME280;68073;54.176;-4.554;2023-04-07T04:59:41;101756.00;;;6.03;42.26
78755;BME280;68073;54.176;-4.554;2023-04-07T05:02:06;101755.24;;;5.98;41.78
78755;BME280;68073;54.176;-4.554;2023-04-07T05:04:31;101758.35;;;5.94;41.83
78755;BME280;68073;54.176;-4.554;2023-04-07T05:06:57;101755.61;;;6.06;41.59
78755;BME280;68073;54.176;-4.554;2023-04-07T05:09:22;101752.59;;;5.93;41.70
78755;BME280;68073;54.176;-4.554;2023-04-07T05:11:47;101756.50;;;5.97;42.05
78755;BME280;68073;54.176;-4.554;2023-04-07T05:14:12;101761.59;;;5.65;42.03
78755;BME280;68073;54.176;-4.554;2023-04-07T05:16:37;101761.89;;;6.00;41.52
78755;BME280;68073;54.176;-4.554;2023-04-07T05:19:03;101762.77;;;5.74;41.45
78755;BME280;68073;54.176;-4.554;2023-04-07T05:21:28;101769.30;;;5.99;41.35
78755;BME280;68073;54.176;-4.554;2023-04-07T05:23:54;101776.67;;;5.83;41.49
78755;BME280;68073;54.176;-4.554;2023-04-07T05:26:19;101777.60;;;6.02;41.29
78755;BME280;68073;54.176;-4.554;2023-04-07T05:28:44;101778.60;;;6.01;41.38
78755;BME280;68073;54.176;-4.554;2023-04-07T05:31:09;101775.72;;;6.27;41.00
78755;BME280;68073;54.176;-4.554;2023-04-07T05:33:35;101782.25;;;6.03;41.52
78755;BME280;68073;54.176;-4.554;2023-04-07T05:36:00;101788.53;;;5.69;42.25
78755;BME280;68073;54.176;-4.554;2023-04-07T05:38:25;101793.36;;;5.71;42.43
78755;BME280;68073;54.176;-4.554;2023-04-07T05:40:50;101796.44;;;5.79;42.33
78755;BME280;68073;54.176;-4.554;2023-04-07T05:43:16;101803.17;;;5.67;42.41
78755;BME280;68073;54.176;-4.554;2023-04-07T05:45:41;101802.90;;;6.03;41.94
78755;BME280;68073;54.176;-4.554;2023-04-07T05:48:07;101801.65;;;5.43;42.02
78755;BME280;68073;54.176;-4.554;2023-04-07T05:50:32;101801.96;;;5.49;41.87
78755;BME280;68073;54.176;-4.554;2023-04-07T05:52:57;101802.18;;;5.69;41.73
78755;BME280;68073;54.176;-4.554;2023-04-07T05:55:23;101804.08;;;5.67;42.25
78755;BME280;68073;54.176;-4.554;2023-04-07T05:57:48;101801.01;;;5.55;42.10
78755;BME280;68073;54.176;-4.554;2023-04-07T06:00:14;101799.52;;;5.74;41.85
78755;BME280;68073;54.176;-4.554;2023-04-07T06:02:38;101795.13;;;5.81;41.66
78755;BME280;68073;54.176;-4.554;2023-04-07T06:05:04;101798.75;;;5.75;41.60
78755;BME280;68073;54.176;-4.554;2023-04-07T06:07:29;101794.41;;;5.53;41.48
78755;BME280;68073;54.176;-4.554;2023-04-07T06:09:55;101799.70;;;5.47;41.83
78755;BME280;68073;54.176;-4.554;2023-04-07T06:12:20;101807.08;;;5.56;41.89
78755;BME280;68073;54.176;-4.554;2023-04-07T06:14:51;101814.84;;;5.43;42.20
78755;BME280;68073;54.176;-4.554;2023-04-07T06:17:11;101818.51;;;5.38;42.28
78755;BME280;68073;54.176;-4.554;2023-04-07T06:19:36;101815.00;;;5.81;41.54
78755;BME280;68073;54.176;-4.554;2023-04-07T06:22:01;101813.27;;;5.61;41.83
78755;BME280;68073;54.176;-4.554;2023-04-07T06:24:27;101810.74;;;5.91;42.09
78755;BME280;68073;54.176;-4.554;2023-04-07T06:26:53;101815.04;;;6.01;42.09
78755;BME280;68073;54.176;-4.554;2023-04-07T06:29:18;101817.51;;;6.05;41.99
78755;BME280;68073;54.176;-4.554;2023-04-07T06:31:43;101820.33;;;5.88;43.08
78755;BME280;68073;54.176;-4.554;2023-04-07T06:34:08;101820.44;;;6.24;43.32
78755;BME280;68073;54.176;-4.554;2023-04-07T06:36:34;101826.37;;;5.89;42.83
78755;BME280;68073;54.176;-4.554;2023-04-07T06:38:59;101827.77;;;5.90;42.34
78755;BME280;68073;54.176;-4.554;2023-04-07T06:41:24;101832.92;;;5.87;42.53
78755;BME280;68073;54.176;-4.554;2023-04-07T06:43:50;101836.16;;;5.64;42.78
78755;BME280;68073;54.176;-4.554;2023-04-07T06:46:15;101837.55;;;6.06;42.15
78755;BME280;68073;54.176;-4.554;2023-04-07T06:48:40;101841.05;;;6.00;43.02
78755;BME280;68073;54.176;-4.554;2023-04-07T06:51:06;101842.96;;;5.88;43.06
78755;BME280;68073;54.176;-4.554;2023-04-07T06:53:31;101839.52;;;5.92;43.36
78755;BME280;68073;54.176;-4.554;2023-04-07T06:56:03;101842.06;;;6.39;42.82
78755;BME280;68073;54.176;-4.554;2023-04-07T06:58:21;101844.35;;;6.18;43.65
78755;BME280;68073;54.176;-4.554;2023-04-07T07:00:47;101841.81;;;6.19;43.39
78755;BME280;68073;54.176;-4.554;2023-04-07T07:03:12;101842.99;;;6.25;43.35
78755;BME280;68073;54.176;-4.554;2023-04-07T07:05:37;101847.64;;;5.92;44.07
78755;BME280;68073;54.176;-4.554;2023-04-07T07:08:03;101849.51;;;6.44;43.63
78755;BME280;68073;54.176;-4.554;2023-04-07T07:10:29;101846.78;;;6.55;43.54
78755;BME280;68073;54.176;-4.554;2023-04-07T07:12:55;101842.33;;;6.38;44.20
78755;BME280;68073;54.176;-4.554;2023-04-07T07:15:20;101839.22;;;6.40;43.80
78755;BME280;68073;54.176;-4.554;2023-04-07T07:17:45;101841.97;;;6.55;44.12
78755;BME280;68073;54.176;-4.554;2023-04-07T07:20:11;101844.94;;;6.42;43.77
78755;BME280;68073;54.176;-4.554;2023-04-07T07:22:36;101848.07;;;6.31;44.30
78755;BME280;68073;54.176;-4.554;2023-04-07T07:25:01;101844.49;;;6.62;44.32
78755;BME280;68073;54.176;-4.554;2023-04-07T07:27:26;101845.48;;;6.42;45.04
78755;BME280;68073;54.176;-4.554;2023-04-07T07:29:52;101846.37;;;5.94;45.55
78755;BME280;68073;54.176;-4.554;2023-04-07T07:32:17;101849.01;;;6.70;45.19
78755;BME280;68073;54.176;-4.554;2023-04-07T07:34:42;101856.41;;;6.47;45.39
78755;BME280;68073;54.176;-4.554;2023-04-07T07:37:08;101859.42;;;6.90;45.59
78755;BME280;68073;54.176;-4.554;2023-04-07T07:39:33;101855.66;;;6.68;45.92
78755;BME280;68073;54.176;-4.554;2023-04-07T07:41:59;101853.64;;;6.93;46.24
78755;BME280;68073;54.176;-4.554;2023-04-07T07:44:24;101849.72;;;6.53;46.52
78755;BME280;68073;54.176;-4.554;2023-04-07T07:46:50;101848.36;;;6.62;46.57
78755;BME280;68073;54.176;-4.554;2023-04-07T07:49:14;101848.40;;;7.03;47.13
78755;BME280;68073;54.176;-4.554;2023-04-07T07:51:40;101851.86;;;6.70;47.11
78755;BME280;68073;54.176;-4.554;2023-04-07T07:54:05;101851.05;;;6.71;47.29
78755;BME280;68073;54.176;-4.554;2023-04-07T07:56:30;101852.22;;;6.74;47.65
78755;BME280;68073;54.176;-4.554;2023-04-07T07:58:55;101852.93;;;6.79;47.74
78755;BME280;68073;54.176;-4.554;2023-04-07T08:01:20;101855.59;;;6.81;47.90
78755;BME280;68073;54.176;-4.554;2023-04-07T08:03:46;101855.21;;;6.87;48.17
78755;BME280;68073;54.176;-4.554;2023-04-07T08:06:11;101857.43;;;6.92;48.30
78755;BME280;68073;54.176;-4.554;2023-04-07T08:08:36;101865.62;;;7.20;48.22
78755;BME280;68073;54.176;-4.554;2023-04-07T08:11:02;101868.01;;;7.47;48.17
78755;BME280;68073;54.176;-4.554;2023-04-07T08:13:27;101863.18;;;7.96;47.33
78755;BME280;68073;54.176;-4.554;2023-04-07T08:15:52;101863.22;;;7.49;48.39
78755;BME280;68073;54.176;-4.554;2023-04-07T08:18:17;101863.71;;;7.48;48.70
78755;BME280;68073;54.176;-4.554;2023-04-07T08:20:43;101863.58;;;7.63;48.68
78755;BME280;68073;54.176;-4.554;2023-04-07T08:23:08;101867.58;;;7.46;49.32
78755;BME280;68073;54.176;-4.554;2023-04-07T08:25:34;101867.60;;;7.84;48.64
78755;BME280;68073;54.176;-4.554;2023-04-07T08:27:58;101868.05;;;7.68;48.59
78755;BME280;68073;54.176;-4.554;2023-04-07T08:30:23;101869.72;;;7.43;48.50
78755;BME280;68073;54.176;-4.554;2023-04-07T08:32:49;101870.01;;;7.48;48.22
78755;BME280;68073;54.176;-4.554;2023-04-07T08:35:14;101871.58;;;8.02;47.68
78755;BME280;68073;54.176;-4.554;2023-04-07T08:37:40;101867.99;;;7.75;47.73
78755;BME280;68073;54.176;-4.554;2023-04-07T08:40:05;101865.16;;;7.76;47.67
78755;BME280;68073;54.176;-4.554;2023-04-07T08:42:31;101863.79;;;7.63;47.33
78755;BME280;68073;54.176;-4.554;2023-04-07T08:44:57;101862.15;;;7.97;47.39
78755;BME280;68073;54.176;-4.554;2023-04-07T08:47:42;101861.88;;;8.13;46.28
78755;BME280;68073;54.176;-4.554;2023-04-07T08:49:50;101862.80;;;8.58;45.88
78755;BME280;68073;54.176;-4.554;2023-04-07T08:52:14;101866.08;;;8.33;45.87
78755;BME280;68073;54.176;-4.554;2023-04-07T08:54:36;101868.99;;;7.84;46.58
78755;BME280;68073;54.176;-4.554;2023-04-07T08:57:02;101860.64;;;8.45;45.53
78755;BME280;68073;54.176;-4.554;2023-04-07T08:59:26;101859.75;;;8.47;44.99
78755;BME280;68073;54.176;-4.554;2023-04-07T09:01:52;101861.69;;;8.27;44.09
78755;BME280;68073;54.176;-4.554;2023-04-07T09:04:17;101863.16;;;8.17;43.91
78755;BME280;68073;54.176;-4.554;2023-04-07T09:06:42;101862.92;;;8.66;43.41
78755;BME280;68073;54.176;-4.554;2023-04-07T09:09:08;101856.84;;;8.45;43.41
78755;BME280;68073;54.176;-4.554;2023-04-07T09:11:35;101857.57;;;8.80;43.05
78755;BME280;68073;54.176;-4.554;2023-04-07T09:13:58;101856.20;;;8.91;42.20
78755;BME280;68073;54.176;-4.554;2023-04-07T09:16:24;101858.22;;;8.63;43.12
78755;BME280;68073;54.176;-4.554;2023-04-07T09:18:49;101850.86;;;8.49;42.71
78755;BME280;68073;54.176;-4.554;2023-04-07T09:21:14;101851.84;;;8.29;42.85
78755;BME280;68073;54.176;-4.554;2023-04-07T09:23:40;101851.47;;;8.94;42.57
78755;BME280;68073;54.176;-4.554;2023-04-07T09:26:18;101850.56;;;8.87;42.53
78755;BME280;68073;54.176;-4.554;2023-04-07T09:28:38;101851.69;;;8.66;42.67
78755;BME280;68073;54.176;-4.554;2023-04-07T09:30:55;101852.28;;;8.71;43.19
78755;BME280;68073;54.176;-4.554;2023-04-07T09:33:27;101850.92;;;9.00;42.03
78755;BME280;68073;54.176;-4.554;2023-04-07T09:35:50;101848.67;;;8.88;41.50
78755;BME280;68073;54.176;-4.554;2023-04-07T09:38:10;101852.93;;;8.89;41.52
78755;BME280;68073;54.176;-4.554;2023-04-07T09:40:36;101853.54;;;9.00;41.57
78755;BME280;68073;54.176;-4.554;2023-04-07T09:43:02;101852.06;;;9.15;42.50
78755;BME280;68073;54.176;-4.554;2023-04-07T09:45:27;101852.02;;;9.48;42.46
78755;BME280;68073;54.176;-4.554;2023-04-07T09:47:52;101853.25;;;9.27;42.12
78755;BME280;68073;54.176;-4.554;2023-04-07T09:50:31;101853.65;;;9.40;41.53
78755;BME280;68073;54.176;-4.554;2023-04-07T09:52:49;101847.53;;;9.72;41.82
78755;BME280;68073;54.176;-4.554;2023-04-07T09:55:08;101844.45;;;9.75;41.65
78755;BME280;68073;54.176;-4.554;2023-04-07T09:57:37;101846.76;;;9.69;43.20
78755;BME280;68073;54.176;-4.554;2023-04-07T09:59:59;101845.47;;;9.91;43.74
78755;BME280;68073;54.176;-4.554;2023-04-07T10:02:25;101845.95;;;9.87;42.20
78755;BME280;68073;54.176;-4.554;2023-04-07T10:04:51;101842.76;;;9.82;41.23
78755;BME280;68073;54.176;-4.554;2023-04-07T10:07:17;101843.44;;;10.11;41.52
78755;BME280;68073;54.176;-4.554;2023-04-07T10:09:43;101845.60;;;10.13;41.19
78755;BME280;68073;54.176;-4.554;2023-04-07T10:12:08;101844.73;;;9.69;40.43
78755;BME280;68073;54.176;-4.554;2023-04-07T10:14:34;101843.74;;;10.00;40.59
78755;BME280;68073;54.176;-4.554;2023-04-07T10:17:00;101842.72;;;10.40;40.73
78755;BME280;68073;54.176;-4.554;2023-04-07T10:19:28;101841.23;;;10.61;40.97
78755;BME280;68073;54.176;-4.554;2023-04-07T10:21:52;101841.47;;;10.61;41.50
78755;BME280;68073;54.176;-4.554;2023-04-07T10:24:30;101838.13;;;11.09;40.43
78755;BME280;68073;54.176;-4.554;2023-04-07T10:26:42;101841.34;;;11.20;39.48
78755;BME280;68073;54.176;-4.554;2023-04-07T10:29:10;101839.61;;;10.93;39.00
78755;BME280;68073;54.176;-4.554;2023-04-07T10:31:32;101838.77;;;11.21;38.06
78755;BME280;68073;54.176;-4.554;2023-04-07T10:33:58;101840.12;;;11.35;36.79
78755;BME280;68073;54.176;-4.554;2023-04-07T10:36:23;101838.96;;;11.12;37.21
78755;BME280;68073;54.176;-4.554;2023-04-07T10:43:40;101838.16;;;12.12;36.44
78755;BME280;68073;54.176;-4.554;2023-04-07T10:46:06;101838.12;;;12.08;37.91
78755;BME280;68073;54.176;-4.554;2023-04-07T10:48:32;101838.11;;;11.88;38.26
78755;BME280;68073;54.176;-4.554;2023-04-07T10:51:13;101840.30;;;12.57;36.64
78755;BME280;68073;54.176;-4.554;2023-04-07T10:53:22;101841.09;;;12.18;35.67
78755;BME280;68073;54.176;-4.554;2023-04-07T10:55:53;101840.69;;;12.24;35.46
78755;BME280;68073;54.176;-4.554;2023-04-07T10:58:16;101838.42;;;12.52;33.93
78755;BME280;68073;54.176;-4.554;2023-04-07T11:00:40;101838.11;;;12.24;35.08
78755;BME280;68073;54.176;-4.554;2023-04-07T11:03:09;101839.13;;;12.43;35.08
78755;BME280;68073;54.176;-4.554;2023-04-07T11:05:31;101844.00;;;12.76;35.17
78755;BME280;68073;54.176;-4.554;2023-04-07T11:07:57;101842.26;;;12.77;35.19
78755;BME280;68073;54.176;-4.554;2023-04-07T11:10:23;101839.62;;;12.83;34.38
78755;BME280;68073;54.176;-4.554;2023-04-07T11:12:58;101841.66;;;13.46;34.58
78755;BME280;68073;54.176;-4.554;2023-04-07T11:15:19;101843.80;;;13.72;33.89
78755;BME280;68073;54.176;-4.554;2023-04-07T11:17:40;101846.31;;;13.45;35.97
78755;BME280;68073;54.176;-4.554;2023-04-07T11:20:07;101846.17;;;13.47;35.37
78755;BME280;68073;54.176;-4.554;2023-04-07T11:22:31;101845.83;;;13.76;36.40
78755;BME280;68073;54.176;-4.554;2023-04-07T11:24:57;101843.90;;;14.05;34.99
78755;BME280;68073;54.176;-4.554;2023-04-07T11:27:22;101850.56;;;14.15;33.52
78755;BME280;68073;54.176;-4.554;2023-04-07T11:29:48;101852.25;;;14.06;33.12
78755;BME280;68073;54.176;-4.554;2023-04-07T11:32:13;101850.68;;;13.93;34.10
78755;BME280;68073;54.176;-4.554;2023-04-07T11:34:39;101852.19;;;13.89;33.96
78755;BME280;68073;54.176;-4.554;2023-04-07T11:37:17;101852.11;;;14.48;32.93
78755;BME280;68073;54.176;-4.554;2023-04-07T11:39:30;101850.98;;;14.59;32.66
78755;BME280;68073;54.176;-4.554;2023-04-07T11:41:56;101852.60;;;14.96;31.92
78755;BME280;68073;54.176;-4.554;2023-04-07T11:44:21;101855.46;;;14.93;31.91
78755;BME280;68073;54.176;-4.554;2023-04-07T11:46:52;101857.18;;;14.69;33.16
78755;BME280;68073;54.176;-4.554;2023-04-07T11:49:13;101852.06;;;14.93;31.37
78755;BME280;68073;54.176;-4.554;2023-04-07T11:51:39;101849.61;;;15.22;30.84
78755;BME280;68073;54.176;-4.554;2023-04-07T11:54:03;101850.35;;;15.61;31.02
78755;BME280;68073;54.176;-4.554;2023-04-07T11:56:28;101853.10;;;15.89;29.94
78755;BME280;68073;54.176;-4.554;2023-04-07T11:58:54;101850.87;;;15.34;30.23
78755;BME280;68073;54.176;-4.554;2023-04-07T12:01:20;101852.30;;;15.90;30.76
78755;BME280;68073;54.176;-4.554;2023-04-07T12:03:55;101850.21;;;15.56;29.49
78755;BME280;68073;54.176;-4.554;2023-04-07T12:06:10;101848.60;;;16.03;29.50
78755;BME280;68073;54.176;-4.554;2023-04-07T12:08:38;101850.83;;;16.30;29.24
78755;BME280;68073;54.176;-4.554;2023-04-07T12:11:02;101846.68;;;16.32;28.70
78755;BME280;68073;54.176;-4.554;2023-04-07T12:13:27;101847.54;;;17.02;27.51
78755;BME280;68073;54.176;-4.554;2023-04-07T12:15:52;101846.70;;;16.81;27.17
78755;BME280;68073;54.176;-4.554;2023-04-07T12:18:18;101847.62;;;16.84;27.37
78755;BME280;68073;54.176;-4.554;2023-04-07T12:20:43;101845.75;;;17.50;25.87
78755;BME280;68073;54.176;-4.554;2023-04-07T12:23:09;101843.71;;;17.78;26.21
78755;BME280;68073;54.176;-4.554;2023-04-07T12:25:34;101841.24;;;17.55;26.10
78755;BME280;68073;54.176;-4.554;2023-04-07T12:28:00;101835.97;;;18.00;25.23
78755;BME280;68073;54.176;-4.554;2023-04-07T12:30:25;101838.08;;;18.49;24.13
78755;BME280;68073;54.176;-4.554;2023-04-07T12:32:51;101837.98;;;18.75;23.86
78755;BME280;68073;54.176;-4.554;2023-04-07T12:35:16;101833.33;;;18.99;23.76
78755;BME280;68073;54.176;-4.554;2023-04-07T12:37:41;101829.23;;;19.78;23.30
78755;BME280;68073;54.176;-4.554;2023-04-07T12:40:08;101833.56;;;20.30;22.79
78755;BME280;68073;54.176;-4.554;2023-04-07T12:42:32;101833.42;;;20.62;22.36
78755;BME280;68073;54.176;-4.554;2023-04-07T12:44:57;101832.99;;;22.11;20.40